Time;durP1;ratioP1;P1;durP2;ratioP2;P2;SDS_P1;SDS_P2;PMS_P1;PMS_P2;Temp;Humidity;BMP_temperature;BMP_pressure;BME280_temperature;BME280_humidity;BME280_pressure;Samples;Min_cycle;Max_cycle;Signal;HPM_P1;HPM_P2
2021/07/22 00:02:06;;;;;;;17.93;6.13;;;16.10;99.90;;;;;;5134538;27;20205;-66
2021/07/22 00:04:53;;;;;;;10.23;6.10;;;16.00;99.90;;;;;;5133938;27;20277;-66
2021/07/22 00:07:44;;;;;;;12.67;6.23;;;16.00;99.90;;;;;;5134467;27;20209;-66
2021/07/22 00:10:31;;;;;;;15.43;6.33;;;16.00;99.90;;;;;;5133898;27;20207;-66
2021/07/22 00:13:19;;;;;;;15.47;6.13;;;16.00;99.90;;;;;;5133769;27;20198;-66
2021/07/22 00:16:08;;;;;;;12.83;6.13;;;15.90;99.90;;;;;;5133210;27;20216;-66
2021/07/22 00:18:55;;;;;;;11.53;6.07;;;15.90;99.90;;;;;;5133588;27;20202;-66
2021/07/22 00:21:43;;;;;;;17.17;5.87;;;16.00;99.90;;;;;;5133516;27;20205;-66
2021/07/22 00:24:32;;;;;;;15.30;6.00;;;16.00;99.90;;;;;;5134192;27;20212;-66
2021/07/22 00:27:20;;;;;;;11.37;5.70;;;15.90;99.90;;;;;;5133658;27;20217;-66
2021/07/22 00:30:08;;;;;;;13.90;5.80;;;15.90;99.90;;;;;;5133367;27;20676;-66
2021/07/22 00:32:57;;;;;;;12.67;5.70;;;15.90;99.90;;;;;;5133217;27;20196;-66
2021/07/22 00:35:45;;;;;;;11.00;5.73;;;15.90;99.90;;;;;;5133239;27;20305;-66
2021/07/22 00:38:32;;;;;;;16.50;6.13;;;15.80;99.90;;;;;;5133341;27;20685;-66
2021/07/22 00:41:22;;;;;;;19.13;6.40;;;15.80;99.90;;;;;;5133728;27;20222;-66
2021/07/22 00:44:09;;;;;;;13.97;6.27;;;15.70;99.90;;;;;;5133425;27;20212;-66
2021/07/22 00:46:57;;;;;;;14.80;6.50;;;15.80;99.90;;;;;;5133597;27;20219;-66
2021/07/22 00:49:49;;;;;;;19.77;6.20;;;15.80;99.90;;;;;;5133882;27;20198;-66
2021/07/22 00:52:37;;;;;;;10.53;5.93;;;15.80;99.90;;;;;;5133476;27;20296;-66
2021/07/22 00:55:25;;;;;;;13.63;6.77;;;15.80;99.90;;;;;;5133256;27;20217;-66
2021/07/22 00:58:14;;;;;;;15.37;6.50;;;15.80;99.90;;;;;;5133014;27;20201;-66
2021/07/22 01:01:01;;;;;;;12.43;5.80;;;15.80;99.90;;;;;;5132849;27;20204;-66
2021/07/22 01:03:49;;;;;;;15.87;6.10;;;15.80;99.90;;;;;;5132759;27;20195;-66
2021/07/22 01:06:36;;;;;;;14.87;5.87;;;15.70;99.90;;;;;;5132376;27;20202;-66
2021/07/22 01:09:24;;;;;;;13.90;5.97;;;15.70;99.90;;;;;;5132593;27;20191;-66
2021/07/22 01:12:12;;;;;;;10.80;6.00;;;15.70;99.90;;;;;;5133186;27;20213;-66
2021/07/22 01:15:01;;;;;;;22.13;6.53;;;15.60;99.90;;;;;;5132933;27;20583;-66
2021/07/22 01:17:49;;;;;;;13.43;5.80;;;15.60;99.90;;;;;;5132569;27;20777;-66
2021/07/22 01:20:38;;;;;;;16.43;6.03;;;15.60;99.90;;;;;;5132798;27;20205;-66
2021/07/22 01:23:25;;;;;;;13.70;5.67;;;15.60;99.90;;;;;;5133268;27;20225;-66
2021/07/22 01:26:13;;;;;;;16.87;7.10;;;15.50;99.90;;;;;;5132202;27;20488;-66
2021/07/22 01:29:01;;;;;;;16.37;5.93;;;15.50;99.90;;;;;;5132239;27;20209;-66
2021/07/22 01:31:48;;;;;;;11.20;5.93;;;15.40;99.90;;;;;;5132361;27;20192;-66
2021/07/22 01:34:36;;;;;;;12.97;5.73;;;15.40;99.90;;;;;;5132263;27;20200;-66
2021/07/22 01:37:25;;;;;;;14.97;5.63;;;15.30;99.90;;;;;;5132221;27;20198;-66
2021/07/22 01:40:13;;;;;;;12.70;5.87;;;15.30;99.90;;;;;;5132088;27;20672;-66
2021/07/22 01:43:04;;;;;;;10.97;5.97;;;15.30;99.90;;;;;;5132513;27;20231;-66
2021/07/22 01:45:51;;;;;;;10.07;5.83;;;15.30;99.90;;;;;;5132131;27;20250;-66
2021/07/22 01:48:39;;;;;;;11.57;5.80;;;15.20;99.90;;;;;;5131961;27;20203;-66
2021/07/22 01:51:27;;;;;;;10.23;5.83;;;15.20;99.90;;;;;;5131602;27;20234;-66
2021/07/22 01:54:15;;;;;;;11.13;6.13;;;15.10;99.90;;;;;;5132403;27;20206;-66
2021/07/22 01:57:03;;;;;;;19.73;6.10;;;15.10;99.90;;;;;;5131683;27;20215;-66
2021/07/22 01:59:51;;;;;;;11.37;5.97;;;15.10;99.90;;;;;;5131106;27;20194;-66
2021/07/22 02:02:38;;;;;;;12.93;6.20;;;15.10;99.90;;;;;;5131781;27;20214;-66
2021/07/22 02:05:26;;;;;;;13.43;6.00;;;15.10;99.90;;;;;;5132206;27;20661;-66
2021/07/22 02:08:13;;;;;;;13.10;6.17;;;15.00;99.90;;;;;;5131536;27;20211;-66
2021/07/22 02:11:04;;;;;;;13.47;6.23;;;15.00;99.90;;;;;;5132124;27;20204;-66
2021/07/22 02:13:52;;;;;;;10.70;5.90;;;15.00;99.90;;;;;;5132377;27;20214;-66
2021/07/22 02:16:40;;;;;;;14.40;6.10;;;14.90;99.90;;;;;;5131351;27;20217;-66
2021/07/22 02:19:28;;;;;;;15.67;6.57;;;14.90;99.90;;;;;;5131361;27;20198;-66
2021/07/22 02:22:18;;;;;;;15.80;5.93;;;15.00;99.90;;;;;;5131015;27;20301;-66
2021/07/22 02:25:07;;;;;;;10.13;5.60;;;15.00;99.90;;;;;;5131987;27;20248;-66
2021/07/22 02:27:56;;;;;;;15.03;5.43;;;15.00;99.90;;;;;;5132052;27;20212;-66
2021/07/22 02:30:43;;;;;;;16.43;6.63;;;15.00;99.90;;;;;;5131410;27;20209;-66
2021/07/22 02:33:31;;;;;;;14.30;5.37;;;14.90;99.90;;;;;;5131866;27;20689;-66
2021/07/22 02:36:18;;;;;;;17.17;6.37;;;14.90;99.90;;;;;;5131279;27;20289;-66
2021/07/22 02:39:06;;;;;;;12.47;6.40;;;14.90;99.90;;;;;;5131258;27;20221;-66
2021/07/22 02:41:54;;;;;;;12.00;6.30;;;14.90;99.90;;;;;;5131800;27;20291;-66
2021/07/22 02:44:43;;;;;;;12.63;5.80;;;14.90;99.90;;;;;;5131591;27;20591;-66
2021/07/22 02:47:31;;;;;;;12.50;5.90;;;14.90;99.90;;;;;;5131047;27;20221;-66
2021/07/22 02:50:18;;;;;;;11.67;6.20;;;14.90;99.90;;;;;;5131509;27;20192;-66
2021/07/22 02:53:06;;;;;;;16.77;6.13;;;14.90;99.90;;;;;;5131277;27;20585;-66
2021/07/22 02:55:55;;;;;;;11.90;5.63;;;15.00;99.90;;;;;;5129739;28;20228;-66
2021/07/22 02:58:43;;;;;;;14.87;6.77;;;15.00;99.90;;;;;;5131267;27;20236;-65
2021/07/22 03:01:32;;;;;;;12.50;6.33;;;15.00;99.90;;;;;;5131326;28;20198;-66
2021/07/22 03:04:20;;;;;;;14.23;5.70;;;15.10;99.90;;;;;;5131217;27;20615;-66
2021/07/22 03:07:07;;;;;;;10.50;6.17;;;15.00;99.90;;;;;;5131394;28;20193;-66
2021/07/22 03:09:55;;;;;;;16.70;6.33;;;15.00;99.90;;;;;;5129422;28;20680;-66
2021/07/22 03:12:42;;;;;;;14.50;6.30;;;15.00;99.90;;;;;;5131186;27;20209;-66
2021/07/22 03:15:30;;;;;;;13.60;7.13;;;15.00;99.90;;;;;;5130543;28;20331;-66
2021/07/22 03:18:19;;;;;;;15.07;6.40;;;15.00;99.90;;;;;;5131053;27;20327;-66
2021/07/22 03:21:07;;;;;;;11.43;5.80;;;15.00;99.90;;;;;;5130846;28;20198;-66
2021/07/22 03:23:54;;;;;;;12.13;6.40;;;14.90;99.90;;;;;;5131189;28;20195;-66
2021/07/22 03:26:42;;;;;;;11.13;6.43;;;14.90;99.90;;;;;;5130460;28;20199;-66
2021/07/22 03:29:30;;;;;;;12.90;6.30;;;14.90;99.90;;;;;;5131020;27;20563;-66
2021/07/22 03:32:17;;;;;;;12.40;6.40;;;14.90;99.90;;;;;;5131209;28;20736;-66
2021/07/22 03:35:09;;;;;;;11.80;5.90;;;14.90;99.90;;;;;;5133601;27;20197;-66
2021/07/22 03:37:59;;;;;;;16.47;5.97;;;14.90;99.90;;;;;;5134052;27;20214;-66
2021/07/22 03:40:47;;;;;;;12.40;6.30;;;14.90;99.90;;;;;;5134702;27;20196;-66
2021/07/22 03:43:34;;;;;;;13.73;6.43;;;15.00;99.90;;;;;;5134498;27;20238;-66
2021/07/22 03:46:22;;;;;;;13.57;6.43;;;15.00;99.90;;;;;;5134240;27;20218;-66
2021/07/22 03:49:10;;;;;;;14.13;6.77;;;15.10;99.90;;;;;;5134352;27;20207;-66
2021/07/22 03:51:59;;;;;;;10.57;5.90;;;15.10;99.90;;;;;;5134259;27;20231;-66
2021/07/22 03:54:47;;;;;;;11.20;5.97;;;15.10;99.90;;;;;;5133986;27;20200;-66
2021/07/22 03:57:34;;;;;;;13.47;6.97;;;15.10;99.90;;;;;;5134000;27;20217;-66
2021/07/22 04:00:22;;;;;;;12.17;6.33;;;15.20;99.90;;;;;;5133956;27;20197;-66
2021/07/22 04:03:10;;;;;;;13.40;6.20;;;15.20;99.90;;;;;;5134490;27;20563;-66
2021/07/22 04:05:59;;;;;;;13.80;6.40;;;15.30;99.90;;;;;;5133605;27;20202;-66
2021/07/22 04:08:48;;;;;;;16.13;6.40;;;15.30;99.90;;;;;;5134486;27;20599;-66
2021/07/22 04:11:36;;;;;;;16.20;7.00;;;15.40;99.90;;;;;;5134027;27;20216;-66
2021/07/22 04:14:24;;;;;;;14.33;6.87;;;15.40;99.90;;;;;;5133682;27;20308;-66
2021/07/22 04:17:14;;;;;;;10.23;6.33;;;15.40;99.90;;;;;;5133779;27;20210;-66
2021/07/22 04:20:03;;;;;;;14.10;6.57;;;15.50;99.90;;;;;;5133092;27;20579;-66
2021/07/22 04:22:51;;;;;;;12.57;6.47;;;15.50;99.90;;;;;;5133550;27;20197;-66
2021/07/22 04:25:40;;;;;;;11.17;6.23;;;15.60;99.90;;;;;;5133560;27;20204;-66
2021/07/22 04:28:27;;;;;;;14.03;6.83;;;15.70;99.90;;;;;;5133750;27;20206;-66
2021/07/22 04:31:16;;;;;;;12.83;6.80;;;15.80;99.90;;;;;;5134075;27;20540;-66
2021/07/22 04:34:04;;;;;;;18.77;6.47;;;15.90;99.90;;;;;;5133915;27;20197;-66
2021/07/22 04:36:51;;;;;;;18.93;6.83;;;16.00;99.90;;;;;;5133560;27;20309;-66
2021/07/22 04:39:39;;;;;;;12.67;7.40;;;16.00;99.90;;;;;;5133078;27;20207;-66
2021/07/22 04:42:28;;;;;;;14.47;7.20;;;16.10;99.90;;;;;;5133843;27;20385;-66
2021/07/22 04:45:16;;;;;;;15.30;7.80;;;16.10;99.90;;;;;;5132766;27;20658;-66
2021/07/22 04:48:04;;;;;;;18.27;8.37;;;16.20;99.90;;;;;;5133256;27;20206;-66
2021/07/22 04:50:52;;;;;;;15.13;6.97;;;16.20;99.90;;;;;;5132989;27;20206;-66
2021/07/22 04:53:40;;;;;;;17.03;7.30;;;16.30;99.90;;;;;;5133009;27;20693;-66
2021/07/22 04:56:28;;;;;;;15.70;7.43;;;16.40;99.90;;;;;;5133712;27;20221;-66
2021/07/22 04:59:17;;;;;;;17.80;7.90;;;16.40;99.90;;;;;;5133560;27;20209;-66
2021/07/22 05:02:05;;;;;;;15.03;7.93;;;16.50;99.90;;;;;;5132933;27;20667;-66
2021/07/22 05:04:53;;;;;;;16.23;7.80;;;16.60;99.90;;;;;;5132921;27;20735;-66
2021/07/22 05:07:40;;;;;;;21.20;8.27;;;16.60;99.90;;;;;;5132103;27;20665;-66
2021/07/22 05:10:28;;;;;;;21.30;8.50;;;16.60;99.90;;;;;;5132611;27;20197;-66
2021/07/22 05:13:16;;;;;;;19.47;8.47;;;16.60;99.90;;;;;;5132707;27;20279;-66
2021/07/22 05:16:05;;;;;;;21.67;8.30;;;16.60;99.90;;;;;;5133126;27;20195;-66
2021/07/22 05:18:53;;;;;;;18.27;8.10;;;16.50;99.90;;;;;;5132471;27;20206;-66
2021/07/22 05:21:40;;;;;;;20.13;8.97;;;16.60;99.90;;;;;;5133010;27;20206;-66
2021/07/22 05:24:28;;;;;;;18.40;8.33;;;16.50;99.90;;;;;;5133003;27;20198;-66
2021/07/22 05:27:16;;;;;;;20.83;7.93;;;16.60;99.90;;;;;;5133013;27;20246;-66
2021/07/22 05:30:04;;;;;;;16.70;8.40;;;16.80;99.90;;;;;;5132888;27;20783;-66
2021/07/22 05:32:53;;;;;;;24.03;8.47;;;16.80;99.90;;;;;;5132680;27;20675;-66
2021/07/22 05:35:41;;;;;;;18.33;8.53;;;17.00;99.90;;;;;;5132037;27;20204;-66
2021/07/22 05:38:29;;;;;;;17.67;8.97;;;17.10;99.90;;;;;;5132290;27;20665;-66
2021/07/22 05:41:16;;;;;;;19.03;9.20;;;17.20;99.90;;;;;;5131505;27;20201;-66
2021/07/22 05:44:05;;;;;;;18.70;9.40;;;17.40;99.90;;;;;;5132035;27;20206;-66
2021/07/22 05:46:52;;;;;;;18.13;9.07;;;17.40;99.90;;;;;;5132396;27;20213;-66
2021/07/22 05:49:41;;;;;;;21.67;9.43;;;17.30;99.90;;;;;;5131868;27;20276;-66
2021/07/22 05:52:29;;;;;;;19.37;9.73;;;17.40;99.90;;;;;;5131764;27;20233;-66
2021/07/22 05:55:17;;;;;;;22.30;8.27;;;17.60;99.90;;;;;;5131939;27;20195;-66
2021/07/22 05:58:05;;;;;;;16.87;9.17;;;17.70;99.90;;;;;;5131643;27;20223;-66
2021/07/22 06:00:53;;;;;;;19.17;8.57;;;17.80;99.90;;;;;;5131058;27;20666;-66
2021/07/22 06:03:40;;;;;;;19.00;8.60;;;17.90;99.90;;;;;;5132196;27;20207;-66
2021/07/22 06:06:29;;;;;;;20.70;8.60;;;18.00;99.90;;;;;;5131483;27;20205;-66
2021/07/22 06:09:17;;;;;;;24.00;9.67;;;18.20;99.90;;;;;;5132090;27;20212;-66
2021/07/22 06:12:06;;;;;;;18.03;9.33;;;18.20;99.90;;;;;;5131483;27;20219;-66
2021/07/22 06:14:53;;;;;;;24.00;8.87;;;18.20;99.90;;;;;;5131308;27;20205;-66
2021/07/22 06:17:41;;;;;;;24.73;9.33;;;18.20;99.90;;;;;;5131915;27;20217;-66
2021/07/22 06:20:29;;;;;;;21.57;9.47;;;18.30;99.90;;;;;;5131474;27;20678;-66
2021/07/22 06:23:18;;;;;;;18.00;9.07;;;18.30;99.90;;;;;;5131929;27;20199;-66
2021/07/22 06:26:05;;;;;;;20.67;9.13;;;18.40;99.90;;;;;;5131387;27;20208;-66
2021/07/22 06:28:53;;;;;;;20.17;8.93;;;18.60;99.90;;;;;;5132172;27;20765;-66
2021/07/22 06:31:41;;;;;;;22.63;9.93;;;18.60;99.90;;;;;;5131776;27;20199;-66
2021/07/22 06:34:29;;;;;;;26.67;9.40;;;18.80;99.90;;;;;;5131774;27;20673;-66
2021/07/22 06:37:16;;;;;;;22.33;9.60;;;18.80;99.90;;;;;;5131152;27;20216;-66
2021/07/22 06:40:07;;;;;;;20.33;9.43;;;18.90;99.90;;;;;;5131076;27;20200;-66
2021/07/22 06:42:55;;;;;;;23.53;9.47;;;19.00;99.90;;;;;;5131515;27;20201;-66
2021/07/22 06:45:42;;;;;;;17.30;8.57;;;19.10;99.90;;;;;;5131451;27;20220;-66
2021/07/22 06:48:30;;;;;;;17.20;8.60;;;19.20;99.90;;;;;;5131563;27;20664;-66
2021/07/22 06:51:18;;;;;;;15.23;8.17;;;19.20;99.90;;;;;;5131323;27;20206;-66
2021/07/22 06:54:08;;;;;;;20.33;9.07;;;19.50;99.90;;;;;;5130938;27;20197;-66
2021/07/22 06:56:58;;;;;;;21.37;10.43;;;19.50;99.90;;;;;;5130589;28;20216;-66
2021/07/22 06:59:46;;;;;;;25.60;13.27;;;19.60;99.90;;;;;;5130723;28;20197;-66
2021/07/22 07:02:34;;;;;;;23.17;12.67;;;19.50;99.90;;;;;;5130948;28;20281;-66
2021/07/22 07:05:22;;;;;;;27.13;13.23;;;19.50;99.90;;;;;;5130863;28;20197;-66
2021/07/22 07:08:09;;;;;;;34.77;14.40;;;19.50;99.90;;;;;;5131952;27;20194;-66
2021/07/22 07:10:57;;;;;;;22.83;10.10;;;19.60;99.90;;;;;;5134882;27;20254;-66
2021/07/22 07:13:46;;;;;;;26.57;10.87;;;19.70;99.90;;;;;;5134491;27;20203;-66
2021/07/22 07:16:34;;;;;;;19.73;8.77;;;19.80;99.90;;;;;;5135380;27;20669;-66
2021/07/22 07:19:21;;;;;;;20.40;9.67;;;20.00;99.90;;;;;;5134858;27;20232;-66
2021/07/22 07:22:09;;;;;;;21.77;10.30;;;20.10;99.90;;;;;;5135423;27;20205;-66
2021/07/22 07:24:57;;;;;;;22.43;9.97;;;20.20;99.90;;;;;;5135002;27;20202;-66
2021/07/22 07:27:44;;;;;;;21.10;9.20;;;20.10;99.90;;;;;;5135315;27;20209;-66
2021/07/22 07:30:33;;;;;;;23.70;10.80;;;20.00;99.90;;;;;;5133986;27;20209;-66
2021/07/22 07:33:21;;;;;;;22.53;10.23;;;20.10;99.90;;;;;;5134553;27;20198;-66
2021/07/22 07:36:09;;;;;;;23.30;10.57;;;20.30;99.90;;;;;;5134760;27;20233;-66
2021/07/22 07:38:57;;;;;;;25.80;10.93;;;20.50;99.90;;;;;;5134423;27;20354;-66
2021/07/22 07:41:45;;;;;;;29.33;12.43;;;20.50;99.90;;;;;;5134549;27;20228;-66
2021/07/22 07:44:32;;;;;;;28.67;10.80;;;20.60;99.90;;;;;;5135242;27;20587;-66
2021/07/22 07:47:21;;;;;;;27.17;14.23;;;20.90;99.90;;;;;;5133867;27;20297;-66
2021/07/22 07:50:10;;;;;;;26.30;12.57;;;20.90;99.90;;;;;;5134612;27;20205;-66
2021/07/22 07:53:11;;;;;;;26.73;11.03;;;21.10;99.90;;;;;;5133564;27;20234;-66
2021/07/22 07:55:59;;;;;;;35.60;11.73;;;21.10;99.90;;;;;;5134280;27;20678;-66
2021/07/22 07:58:47;;;;;;;28.03;11.97;;;21.40;99.90;;;;;;5134293;27;20706;-66
2021/07/22 08:01:35;;;;;;;21.50;10.90;;;21.60;99.90;;;;;;5134292;27;20690;-66
2021/07/22 08:04:24;;;;;;;20.00;8.70;;;21.70;99.90;;;;;;5134167;27;20191;-66
2021/07/22 08:07:12;;;;;;;12.43;6.00;;;21.90;99.90;;;;;;5134088;27;20195;-66
2021/07/22 08:10:00;;;;;;;14.90;7.60;;;21.90;99.90;;;;;;5133786;27;20209;-66
2021/07/22 08:12:48;;;;;;;10.70;6.33;;;22.10;99.90;;;;;;5133838;27;20195;-66
2021/07/22 08:15:35;;;;;;;10.17;5.50;;;22.30;99.90;;;;;;5133866;27;20269;-66
2021/07/22 08:18:23;;;;;;;9.23;5.13;;;22.40;99.90;;;;;;5134473;27;20207;-66
2021/07/22 08:21:12;;;;;;;15.27;6.57;;;22.60;99.90;;;;;;5132722;27;20202;-66
2021/07/22 08:24:00;;;;;;;8.27;5.13;;;22.80;99.90;;;;;;5133528;27;20247;-66
2021/07/22 08:26:48;;;;;;;10.90;5.63;;;22.90;99.90;;;;;;5134106;27;20198;-66
2021/07/22 08:29:39;;;;;;;16.50;6.60;;;23.00;99.90;;;;;;5134087;27;20605;-66
2021/07/22 08:32:26;;;;;;;10.13;5.97;;;22.90;99.90;;;;;;5134352;27;20240;-66
2021/07/22 08:35:14;;;;;;;10.60;5.77;;;22.90;99.90;;;;;;5133413;27;20198;-66
2021/07/22 08:38:04;;;;;;;9.83;6.13;;;23.10;99.90;;;;;;5133283;27;20241;-66
2021/07/22 08:40:51;;;;;;;14.33;6.97;;;22.90;99.90;;;;;;5133902;27;20205;-66
2021/07/22 08:43:39;;;;;;;13.47;6.40;;;23.10;99.90;;;;;;5133348;27;20665;-66
2021/07/22 08:46:27;;;;;;;11.90;5.43;;;23.30;99.90;;;;;;5133223;27;20226;-66
2021/07/22 08:49:14;;;;;;;12.73;6.17;;;23.30;99.90;;;;;;5133184;27;20190;-66
2021/07/22 08:52:02;;;;;;;19.37;6.83;;;23.50;99.90;;;;;;5133581;27;20262;-66
2021/07/22 08:54:51;;;;;;;12.33;7.13;;;23.70;99.90;;;;;;5132989;27;20209;-66
2021/07/22 08:57:39;;;;;;;9.40;5.33;;;23.80;99.90;;;;;;5133495;27;20581;-66
2021/07/22 09:00:26;;;;;;;13.60;5.50;;;24.00;99.90;;;;;;5133185;27;20206;-66
2021/07/22 09:03:14;;;;;;;17.07;7.73;;;24.10;99.90;;;;;;5132952;27;20592;-66
2021/07/22 09:06:06;;;;;;;19.00;7.17;;;24.00;99.90;;;;;;5132746;27;20670;-66
2021/07/22 09:08:55;;;;;;;10.60;6.17;;;24.00;99.90;;;;;;5133226;27;20194;-66
2021/07/22 09:11:56;;;;;;;11.40;6.18;;;23.90;99.90;;;;;;5133273;27;20198;-66
2021/07/22 09:14:44;;;;;;;15.87;5.83;;;23.90;99.90;;;;;;5133166;27;20209;-66
2021/07/22 09:17:31;;;;;;;18.83;7.40;;;23.80;99.90;;;;;;5131998;27;20219;-66
2021/07/22 09:20:30;;;;;;;15.37;7.23;;;23.70;99.90;;;;;;5132553;27;20194;-66
2021/07/22 09:23:21;;;;;;;15.03;7.67;;;23.60;99.90;;;;;;5132440;27;20209;-66
2021/07/22 09:26:09;;;;;;;10.40;6.07;;;23.50;99.90;;;;;;5133004;27;20679;-66
2021/07/22 09:29:07;;;;;;;12.63;6.27;;;23.30;99.90;;;;;;5132833;27;20199;-66
2021/07/22 09:32:05;;;;;;;15.03;6.60;;;23.10;99.90;;;;;;5131845;27;20251;-66
2021/07/22 09:34:54;;;;;;;21.10;8.73;;;22.90;99.90;;;;;;5132235;27;20592;-66
2021/07/22 09:37:43;;;;;;;17.60;7.77;;;22.70;99.90;;;;;;5131745;27;20597;-66
2021/07/22 09:40:34;;;;;;;16.17;9.23;;;22.70;99.90;;;;;;5130370;27;20247;-66
2021/07/22 09:43:36;;;;;;;17.33;8.30;;;22.80;99.90;;;;;;5131337;27;20285;-66
2021/07/22 09:46:28;;;;;;;17.73;8.23;;;23.20;99.90;;;;;;5131493;27;20225;-66
2021/07/22 09:49:15;;;;;;;14.77;7.67;;;23.20;99.90;;;;;;5131950;27;20202;-66
2021/07/22 09:52:03;;;;;;;14.47;7.13;;;23.40;99.90;;;;;;5132251;27;20226;-66
2021/07/22 09:54:51;;;;;;;16.53;6.77;;;23.50;99.90;;;;;;5131855;27;20202;-66
2021/07/22 09:57:39;;;;;;;9.73;6.60;;;23.60;99.90;;;;;;5131873;27;20285;-66
2021/07/22 10:00:27;;;;;;;14.43;7.07;;;23.60;99.90;;;;;;5131882;27;20198;-66
2021/07/22 10:03:18;;;;;;;10.73;6.17;;;23.60;99.90;;;;;;5131723;27;20256;-66
2021/07/22 10:06:14;;;;;;;11.67;6.20;;;23.80;99.90;;;;;;5131541;27;20195;-66
2021/07/22 10:09:03;;;;;;;11.97;5.60;;;23.60;99.90;;;;;;5132031;27;20198;-66
2021/07/22 10:11:54;;;;;;;14.50;5.87;;;23.40;99.90;;;;;;5132016;27;20198;-66
2021/07/22 10:14:43;;;;;;;18.20;6.47;;;23.40;99.90;;;;;;5131357;27;20206;-66
2021/07/22 10:17:37;;;;;;;10.73;5.90;;;23.40;99.90;;;;;;5132014;27;20210;-66
2021/07/22 10:20:32;;;;;;;10.87;5.60;;;23.40;99.90;;;;;;5131322;27;20206;-66
2021/07/22 10:23:21;;;;;;;18.37;6.10;;;23.50;99.90;;;;;;5131451;27;20194;-66
2021/07/22 10:26:12;;;;;;;14.67;5.80;;;23.40;99.90;;;;;;5131219;27;20202;-66
2021/07/22 10:29:05;;;;;;;15.17;5.67;;;23.50;99.90;;;;;;5131197;27;20191;-66
2021/07/22 10:31:56;;;;;;;13.77;6.03;;;23.40;99.90;;;;;;5131341;27;20195;-66
2021/07/22 10:34:43;;;;;;;14.57;5.77;;;23.60;99.90;;;;;;5131862;27;20222;-66
2021/07/22 10:37:33;;;;;;;14.93;6.50;;;23.50;99.90;;;;;;5131139;27;20661;-66
2021/07/22 10:40:20;;;;;;;17.00;6.80;;;23.50;99.90;;;;;;5131650;27;20217;-66
2021/07/22 10:43:08;;;;;;;12.90;5.90;;;23.60;99.90;;;;;;5131219;27;20202;-66
2021/07/22 10:45:56;;;;;;;19.27;6.20;;;23.50;99.90;;;;;;5130995;27;20226;-66
2021/07/22 10:48:44;;;;;;;10.57;5.80;;;23.60;99.90;;;;;;5130957;27;20660;-66
2021/07/22 10:51:38;;;;;;;18.30;6.07;;;23.60;99.90;;;;;;5130835;27;20669;-66
2021/07/22 10:54:51;;;;;;;15.73;5.90;;;23.70;99.90;;;;;;5131568;27;20297;-66
2021/07/22 10:57:39;;;;;;;15.97;6.60;;;23.70;99.90;;;;;;5130787;27;20271;-66
2021/07/22 11:00:41;;;;;;;14.30;6.07;;;23.80;99.90;;;;;;5130759;27;20230;-66
2021/07/22 11:03:59;;;;;;;9.03;5.50;;;24.00;99.90;;;;;;5131483;28;20202;-66
2021/07/22 11:07:01;;;;;;;10.40;5.47;;;24.00;99.90;;;;;;5130073;28;20343;-66
2021/07/22 11:09:51;;;;;;;8.30;5.30;;;24.00;99.90;;;;;;5130784;28;20651;-66
2021/07/22 11:12:56;;;;;;;8.97;5.37;;;23.90;99.90;;;;;;5130237;28;20243;-66
2021/07/22 11:15:59;;;;;;;14.80;5.65;;;23.90;99.90;;;;;;5131489;27;20716;-66
2021/07/22 11:18:51;;;;;;;10.13;5.63;;;24.00;99.90;;;;;;5131636;27;20294;-66
2021/07/22 11:21:39;;;;;;;11.07;5.43;;;24.10;99.90;;;;;;5131344;28;20280;-66
2021/07/22 11:24:28;;;;;;;11.07;5.33;;;24.10;99.90;;;;;;5131037;28;20665;-66
2021/07/22 11:27:17;;;;;;;10.63;4.88;;;24.30;99.90;;;;;;5130054;28;20259;-66
2021/07/22 11:30:11;;;;;;;10.73;5.70;;;24.30;99.90;;;;;;5130715;28;20198;-66
2021/07/22 11:33:16;;;;;;;11.48;5.40;;;24.20;99.90;;;;;;5131115;28;20214;-66
2021/07/22 11:36:04;;;;;;;10.05;5.47;;;24.10;99.90;;;;;;5130746;28;20267;-66
2021/07/22 11:38:52;;;;;;;9.35;5.95;;;24.10;99.90;;;;;;5130010;28;20218;-66
2021/07/22 11:41:40;;;;;;;12.52;5.82;;;23.80;99.90;;;;;;5130475;28;20198;-66
2021/07/22 11:44:29;;;;;;;9.63;5.27;;;23.90;99.90;;;;;;5131019;28;20207;-66
2021/07/22 11:47:17;;;;;;;10.75;5.10;;;23.80;99.90;;;;;;5130251;28;20225;-66
2021/07/22 11:50:06;;;;;;;10.23;5.03;;;23.80;99.90;;;;;;5131028;28;20210;-66
2021/07/22 11:52:53;;;;;;;9.30;5.33;;;23.80;99.90;;;;;;5130829;27;20337;-66
2021/07/22 11:55:41;;;;;;;8.53;5.57;;;23.80;99.90;;;;;;5132315;27;20212;-66
2021/07/22 11:58:28;;;;;;;9.07;4.67;;;23.80;99.90;;;;;;5134270;27;20223;-66
2021/07/22 12:01:18;;;;;;;11.37;5.17;;;23.80;99.90;;;;;;5134509;27;20195;-66
2021/07/22 12:04:05;;;;;;;11.60;5.00;;;23.90;99.90;;;;;;5134588;27;20198;-66
2021/07/22 12:06:53;;;;;;;9.02;5.22;;;24.10;99.90;;;;;;5133854;27;20279;-66
2021/07/22 12:09:52;;;;;;;9.77;5.07;;;24.10;99.90;;;;;;5133247;27;20205;-66
2021/07/22 12:12:40;;;;;;;7.10;4.80;;;24.10;99.90;;;;;;5134490;27;20213;-66
2021/07/22 12:15:27;;;;;;;11.23;5.00;;;24.30;99.90;;;;;;5134456;27;20490;-66
2021/07/22 12:18:17;;;;;;;11.68;5.40;;;24.30;99.90;;;;;;5133241;27;20199;-66
2021/07/22 12:21:05;;;;;;;9.48;4.93;;;24.40;99.90;;;;;;5133547;27;20199;-66
2021/07/22 12:23:52;;;;;;;14.27;5.75;;;24.60;99.90;;;;;;5134193;27;20199;-66
2021/07/22 12:26:40;;;;;;;7.28;5.03;;;24.60;99.90;;;;;;5134252;27;20197;-66
2021/07/22 12:29:28;;;;;;;8.00;4.88;;;24.60;99.90;;;;;;5132969;27;20194;-66
2021/07/22 12:32:15;;;;;;;10.33;5.00;;;24.40;99.90;;;;;;5133976;27;20798;-66
2021/07/22 12:35:05;;;;;;;9.13;5.32;;;24.30;99.90;;;;;;5133897;27;20255;-66
2021/07/22 12:37:54;;;;;;;11.93;5.63;;;24.20;99.90;;;;;;5134123;27;20260;-66
2021/07/22 12:40:46;;;;;;;8.93;4.90;;;24.10;99.90;;;;;;5133184;27;20195;-66
2021/07/22 12:43:56;;;;;;;12.13;4.77;;;24.20;99.90;;;;;;5134108;27;20309;-66
2021/07/22 12:49:51;;;;;;;9.67;4.63;;;24.20;99.90;;;;;;5134080;27;20202;-66
2021/07/22 12:52:51;;;;;;;9.40;5.53;;;24.30;99.90;;;;;;5133058;27;20245;-66
2021/07/22 12:55:40;;;;;;;8.18;5.07;;;24.30;99.90;;;;;;5133051;27;20207;-66
2021/07/22 12:58:28;;;;;;;6.85;4.13;;;24.30;99.90;;;;;;5133450;27;20217;-66
2021/07/22 13:01:18;;;;;;;9.30;4.57;;;24.20;99.90;;;;;;5132909;27;20202;-66
2021/07/22 13:04:07;;;;;;;9.00;4.53;;;24.30;99.90;;;;;;5132621;27;20199;-66
2021/07/22 13:06:56;;;;;;;10.23;4.60;;;24.40;99.90;;;;;;5133315;27;20295;-66
2021/07/22 13:09:45;;;;;;;13.23;5.20;;;24.20;99.90;;;;;;5132903;27;20202;-66
2021/07/22 13:12:34;;;;;;;8.40;4.00;;;24.30;99.90;;;;;;5133534;27;20339;-66
2021/07/22 13:15:21;;;;;;;7.00;4.07;;;24.30;99.90;;;;;;5133350;27;20661;-66
2021/07/22 13:18:23;;;;;;;7.83;4.40;;;24.20;99.90;;;;;;5133459;27;20275;-66
2021/07/22 13:21:16;;;;;;;7.03;3.95;;;24.00;99.90;;;;;;5133132;27;20194;-66
2021/07/22 13:24:09;;;;;;;7.47;4.15;;;24.00;99.90;;;;;;5132427;27;20199;-66
2021/07/22 13:27:10;;;;;;;8.32;4.60;;;24.10;99.90;;;;;;5132991;27;20229;-66
2021/07/22 13:30:03;;;;;;;6.33;4.03;;;24.10;99.90;;;;;;5132458;27;20264;-66
2021/07/22 13:32:50;;;;;;;6.05;4.18;;;24.20;99.90;;;;;;5132334;27;20706;-66
2021/07/22 13:35:38;;;;;;;7.60;4.38;;;24.50;99.90;;;;;;5132892;27;20690;-66
2021/07/22 13:38:39;;;;;;;6.53;4.05;;;24.70;99.90;;;;;;5132048;27;20198;-66
2021/07/22 13:41:27;;;;;;;8.05;3.63;;;24.70;99.90;;;;;;5131614;27;20654;-66
2021/07/22 13:44:16;;;;;;;9.65;4.60;;;24.60;99.90;;;;;;5131989;27;20572;-66
2021/07/22 13:47:04;;;;;;;9.65;4.35;;;24.40;99.90;;;;;;5132502;27;20210;-66
2021/07/22 13:49:51;;;;;;;10.27;4.57;;;24.20;99.90;;;;;;5132072;27;20285;-66
2021/07/22 13:52:39;;;;;;;10.00;4.18;;;24.20;99.90;;;;;;5131758;27;20569;-66
2021/07/22 13:55:27;;;;;;;9.50;4.30;;;24.20;99.90;;;;;;5132454;27;20679;-66
2021/07/22 13:58:14;;;;;;;6.45;4.40;;;24.30;99.90;;;;;;5132385;27;20191;-66
2021/07/22 14:01:03;;;;;;;9.00;5.10;;;24.40;99.90;;;;;;5132344;27;20201;-66
2021/07/22 14:03:53;;;;;;;10.45;5.05;;;24.30;99.90;;;;;;5132351;27;20687;-66
2021/07/22 14:06:45;;;;;;;9.98;4.85;;;24.30;99.90;;;;;;5132178;27;20198;-66
2021/07/22 14:09:40;;;;;;;9.30;4.55;;;24.20;99.90;;;;;;5132059;27;20275;-66
2021/07/22 14:12:28;;;;;;;11.60;4.63;;;24.00;99.90;;;;;;5132055;27;20205;-66
2021/07/22 14:15:16;;;;;;;9.82;4.63;;;24.00;99.90;;;;;;5131447;27;20278;-66
2021/07/22 14:18:05;;;;;;;13.73;5.32;;;24.00;99.90;;;;;;5131768;27;20562;-66
2021/07/22 14:20:52;;;;;;;8.98;5.15;;;23.80;99.90;;;;;;5131210;27;20213;-66
2021/07/22 14:23:40;;;;;;;10.90;5.43;;;23.80;99.90;;;;;;5131359;27;20287;-66
2021/07/22 14:26:28;;;;;;;11.35;5.80;;;23.70;99.90;;;;;;5131908;27;20285;-66
2021/07/22 14:29:15;;;;;;;9.93;5.15;;;23.60;99.90;;;;;;5131305;27;20206;-66
2021/07/22 14:32:03;;;;;;;10.40;5.25;;;23.60;99.90;;;;;;5131897;27;20207;-66
2021/07/22 14:34:53;;;;;;;12.87;5.80;;;23.50;99.90;;;;;;5130431;27;20649;-66